sensor_id;sensor_type;location;lat;lon;timestamp;P1;durP1;ratioP1;P2;durP2;ratioP2
31770;SDS011;18343;50.152;8.182;2023-05-17T00:02:26;10.43;;;3.25;;
31770;SDS011;18343;50.152;8.182;2023-05-17T00:05:11;11.43;;;3.60;;
31770;SDS011;18343;50.152;8.182;2023-05-17T00:07:57;8.35;;;3.45;;
31770;SDS011;18343;50.152;8.182;2023-05-17T00:10:44;10.77;;;3.67;;
31770;SDS011;18343;50.152;8.182;2023-05-17T00:13:29;10.73;;;3.25;;
31770;SDS011;18343;50.152;8.182;2023-05-17T00:16:13;10.45;;;3.70;;
31770;SDS011;18343;50.152;8.182;2023-05-17T00:18:58;7.35;;;3.70;;
31770;SDS011;18343;50.152;8.182;2023-05-17T00:21:43;10.30;;;3.67;;
31770;SDS011;18343;50.152;8.182;2023-05-17T00:24:29;13.35;;;4.47;;
31770;SDS011;18343;50.152;8.182;2023-05-17T00:27:13;8.60;;;3.38;;
31770;SDS011;18343;50.152;8.182;2023-05-17T00:29:58;11.25;;;4.43;;
31770;SDS011;18343;50.152;8.182;2023-05-17T00:32:43;7.72;;;3.72;;
31770;SDS011;18343;50.152;8.182;2023-05-17T00:35:28;8.45;;;2.97;;
31770;SDS011;18343;50.152;8.182;2023-05-17T00:38:14;10.30;;;3.45;;
31770;SDS011;18343;50.152;8.182;2023-05-17T00:41:01;12.55;;;4.13;;
31770;SDS011;18343;50.152;8.182;2023-05-17T00:43:45;11.02;;;4.03;;
31770;SDS011;18343;50.152;8.182;2023-05-17T00:46:30;7.80;;;3.60;;
31770;SDS011;18343;50.152;8.182;2023-05-17T00:49:16;7.07;;;3.22;;
31770;SDS011;18343;50.152;8.182;2023-05-17T00:52:01;9.50;;;3.47;;
31770;SDS011;18343;50.152;8.182;2023-05-17T00:55:02;9.95;;;3.58;;
31770;SDS011;18343;50.152;8.182;2023-05-17T00:57:47;11.10;;;3.67;;
31770;SDS011;18343;50.152;8.182;2023-05-17T01:00:33;14.18;;;4.00;;
31770;SDS011;18343;50.152;8.182;2023-05-17T01:03:17;6.82;;;3.70;;
31770;SDS011;18343;50.152;8.182;2023-05-17T01:06:02;6.70;;;3.45;;
31770;SDS011;18343;50.152;8.182;2023-05-17T01:08:48;13.45;;;3.92;;
31770;SDS011;18343;50.152;8.182;2023-05-17T01:11:39;13.13;;;3.83;;
31770;SDS011;18343;50.152;8.182;2023-05-17T01:14:37;11.05;;;3.33;;
31770;SDS011;18343;50.152;8.182;2023-05-17T01:17:35;8.27;;;3.75;;
31770;SDS011;18343;50.152;8.182;2023-05-17T01:20:25;7.25;;;3.22;;
31770;SDS011;18343;50.152;8.182;2023-05-17T01:23:23;12.35;;;3.40;;
31770;SDS011;18343;50.152;8.182;2023-05-17T01:26:19;11.13;;;4.93;;
31770;SDS011;18343;50.152;8.182;2023-05-17T01:29:22;7.80;;;3.47;;
31770;SDS011;18343;50.152;8.182;2023-05-17T01:32:11;14.18;;;3.28;;
31770;SDS011;18343;50.152;8.182;2023-05-17T01:34:57;12.00;;;3.30;;
31770;SDS011;18343;50.152;8.182;2023-05-17T01:37:42;10.02;;;3.83;;
31770;SDS011;18343;50.152;8.182;2023-05-17T01:40:27;9.18;;;3.67;;
31770;SDS011;18343;50.152;8.182;2023-05-17T01:43:16;8.27;;;3.53;;
31770;SDS011;18343;50.152;8.182;2023-05-17T01:46:10;11.65;;;3.60;;
31770;SDS011;18343;50.152;8.182;2023-05-17T01:49:05;14.88;;;3.33;;
31770;SDS011;18343;50.152;8.182;2023-05-17T01:51:56;11.20;;;3.55;;
31770;SDS011;18343;50.152;8.182;2023-05-17T01:54:49;9.63;;;3.25;;
31770;SDS011;18343;50.152;8.182;2023-05-17T01:57:38;8.27;;;3.20;;
31770;SDS011;18343;50.152;8.182;2023-05-17T02:00:27;8.75;;;3.33;;
31770;SDS011;18343;50.152;8.182;2023-05-17T02:03:13;8.80;;;3.38;;
31770;SDS011;18343;50.152;8.182;2023-05-17T02:06:00;7.07;;;2.95;;
31770;SDS011;18343;50.152;8.182;2023-05-17T02:08:45;9.98;;;3.38;;
31770;SDS011;18343;50.152;8.182;2023-05-17T02:11:29;8.25;;;3.38;;
31770;SDS011;18343;50.152;8.182;2023-05-17T02:14:14;6.43;;;3.40;;
31770;SDS011;18343;50.152;8.182;2023-05-17T02:17:00;6.20;;;2.85;;
31770;SDS011;18343;50.152;8.182;2023-05-17T02:19:44;9.38;;;3.83;;
31770;SDS011;18343;50.152;8.182;2023-05-17T02:22:30;7.68;;;3.58;;
31770;SDS011;18343;50.152;8.182;2023-05-17T02:25:15;6.70;;;3.20;;
31770;SDS011;18343;50.152;8.182;2023-05-17T02:28:00;10.50;;;3.10;;
31770;SDS011;18343;50.152;8.182;2023-05-17T02:30:44;7.53;;;3.15;;
31770;SDS011;18343;50.152;8.182;2023-05-17T02:33:30;11.05;;;3.45;;
31770;SDS011;18343;50.152;8.182;2023-05-17T02:36:14;17.27;;;4.07;;
31770;SDS011;18343;50.152;8.182;2023-05-17T02:38:59;6.85;;;3.95;;
31770;SDS011;18343;50.152;8.182;2023-05-17T02:41:43;8.85;;;3.38;;
31770;SDS011;18343;50.152;8.182;2023-05-17T02:44:28;7.18;;;3.33;;
31770;SDS011;18343;50.152;8.182;2023-05-17T02:47:12;11.98;;;3.47;;
31770;SDS011;18343;50.152;8.182;2023-05-17T02:50:01;8.45;;;3.40;;
31770;SDS011;18343;50.152;8.182;2023-05-17T02:52:46;7.88;;;3.85;;
31770;SDS011;18343;50.152;8.182;2023-05-17T02:55:30;7.22;;;3.58;;
31770;SDS011;18343;50.152;8.182;2023-05-17T02:58:15;11.75;;;3.78;;
31770;SDS011;18343;50.152;8.182;2023-05-17T03:00:59;9.60;;;3.63;;
31770;SDS011;18343;50.152;8.182;2023-05-17T03:03:44;9.85;;;3.75;;
31770;SDS011;18343;50.152;8.182;2023-05-17T03:06:30;9.90;;;3.55;;
31770;SDS011;18343;50.152;8.182;2023-05-17T03:09:14;10.13;;;3.15;;
31770;SDS011;18343;50.152;8.182;2023-05-17T03:11:59;8.73;;;3.30;;
31770;SDS011;18343;50.152;8.182;2023-05-17T03:14:44;6.47;;;3.10;;
31770;SDS011;18343;50.152;8.182;2023-05-17T03:17:28;8.50;;;3.28;;
31770;SDS011;18343;50.152;8.182;2023-05-17T03:20:13;6.00;;;3.47;;
31770;SDS011;18343;50.152;8.182;2023-05-17T03:23:00;14.57;;;3.22;;
31770;SDS011;18343;50.152;8.182;2023-05-17T03:25:44;7.85;;;3.53;;
31770;SDS011;18343;50.152;8.182;2023-05-17T03:28:29;9.38;;;3.33;;
31770;SDS011;18343;50.152;8.182;2023-05-17T03:31:14;8.70;;;3.33;;
31770;SDS011;18343;50.152;8.182;2023-05-17T03:33:59;10.05;;;3.08;;
31770;SDS011;18343;50.152;8.182;2023-05-17T03:36:44;12.40;;;3.13;;
31770;SDS011;18343;50.152;8.182;2023-05-17T03:39:32;9.48;;;3.42;;
31770;SDS011;18343;50.152;8.182;2023-05-17T03:42:17;8.25;;;3.30;;
31770;SDS011;18343;50.152;8.182;2023-05-17T03:45:01;8.25;;;4.30;;
31770;SDS011;18343;50.152;8.182;2023-05-17T03:47:47;10.25;;;3.85;;
31770;SDS011;18343;50.152;8.182;2023-05-17T03:50:34;15.10;;;6.22;;
31770;SDS011;18343;50.152;8.182;2023-05-17T03:53:19;32.72;;;15.73;;
31770;SDS011;18343;50.152;8.182;2023-05-17T03:56:06;53.72;;;27.63;;
31770;SDS011;18343;50.152;8.182;2023-05-17T03:58:51;52.38;;;25.65;;
31770;SDS011;18343;50.152;8.182;2023-05-17T04:01:36;43.92;;;19.17;;
31770;SDS011;18343;50.152;8.182;2023-05-17T04:04:20;33.13;;;15.80;;
31770;SDS011;18343;50.152;8.182;2023-05-17T04:07:05;15.70;;;6.90;;
31770;SDS011;18343;50.152;8.182;2023-05-17T04:09:49;19.00;;;9.05;;
31770;SDS011;18343;50.152;8.182;2023-05-17T04:12:35;18.40;;;10.82;;
31770;SDS011;18343;50.152;8.182;2023-05-17T04:15:20;23.13;;;12.60;;
31770;SDS011;18343;50.152;8.182;2023-05-17T04:18:05;11.02;;;6.22;;
31770;SDS011;18343;50.152;8.182;2023-05-17T04:20:53;15.35;;;6.68;;
31770;SDS011;18343;50.152;8.182;2023-05-17T04:23:38;8.43;;;4.82;;
31770;SDS011;18343;50.152;8.182;2023-05-17T04:26:23;12.00;;;5.03;;
31770;SDS011;18343;50.152;8.182;2023-05-17T04:29:09;11.68;;;4.85;;
31770;SDS011;18343;50.152;8.182;2023-05-17T04:31:53;13.80;;;5.80;;
31770;SDS011;18343;50.152;8.182;2023-05-17T04:34:38;9.80;;;4.85;;
31770;SDS011;18343;50.152;8.182;2023-05-17T04:37:23;13.35;;;5.07;;
31770;SDS011;18343;50.152;8.182;2023-05-17T04:40:08;12.20;;;4.80;;
31770;SDS011;18343;50.152;8.182;2023-05-17T04:42:53;9.77;;;4.80;;
31770;SDS011;18343;50.152;8.182;2023-05-17T04:45:39;10.60;;;4.63;;
31770;SDS011;18343;50.152;8.182;2023-05-17T04:48:24;11.98;;;4.35;;
31770;SDS011;18343;50.152;8.182;2023-05-17T04:51:09;13.63;;;4.70;;
31770;SDS011;18343;50.152;8.182;2023-05-17T04:53:54;8.57;;;4.82;;
31770;SDS011;18343;50.152;8.182;2023-05-17T04:56:38;11.60;;;5.60;;
31770;SDS011;18343;50.152;8.182;2023-05-17T04:59:23;14.80;;;6.32;;
31770;SDS011;18343;50.152;8.182;2023-05-17T05:02:09;14.43;;;4.90;;
31770;SDS011;18343;50.152;8.182;2023-05-17T05:04:56;15.20;;;4.78;;
31770;SDS011;18343;50.152;8.182;2023-05-17T05:07:41;9.70;;;4.60;;
31770;SDS011;18343;50.152;8.182;2023-05-17T05:10:26;11.98;;;4.47;;
31770;SDS011;18343;50.152;8.182;2023-05-17T05:13:10;14.63;;;4.68;;
31770;SDS011;18343;50.152;8.182;2023-05-17T05:15:58;13.73;;;4.93;;
31770;SDS011;18343;50.152;8.182;2023-05-17T05:18:44;8.15;;;4.25;;
31770;SDS011;18343;50.152;8.182;2023-05-17T05:21:29;13.18;;;4.40;;
31770;SDS011;18343;50.152;8.182;2023-05-17T05:24:13;14.88;;;5.28;;
31770;SDS011;18343;50.152;8.182;2023-05-17T05:26:58;14.98;;;5.10;;
31770;SDS011;18343;50.152;8.182;2023-05-17T05:29:43;11.63;;;4.85;;
31770;SDS011;18343;50.152;8.182;2023-05-17T05:32:28;10.30;;;4.80;;
31770;SDS011;18343;50.152;8.182;2023-05-17T05:35:17;11.25;;;4.72;;
31770;SDS011;18343;50.152;8.182;2023-05-17T05:38:02;14.15;;;4.97;;
31770;SDS011;18343;50.152;8.182;2023-05-17T05:40:47;12.57;;;5.65;;
31770;SDS011;18343;50.152;8.182;2023-05-17T05:43:31;14.93;;;5.25;;
31770;SDS011;18343;50.152;8.182;2023-05-17T05:46:16;14.90;;;5.93;;
31770;SDS011;18343;50.152;8.182;2023-05-17T05:49:01;12.07;;;4.80;;
31770;SDS011;18343;50.152;8.182;2023-05-17T05:51:46;13.77;;;5.25;;
31770;SDS011;18343;50.152;8.182;2023-05-17T05:54:31;17.60;;;5.45;;
31770;SDS011;18343;50.152;8.182;2023-05-17T05:57:15;12.82;;;4.93;;
31770;SDS011;18343;50.152;8.182;2023-05-17T06:00:00;15.70;;;5.28;;
31770;SDS011;18343;50.152;8.182;2023-05-17T06:02:45;19.55;;;5.88;;
31770;SDS011;18343;50.152;8.182;2023-05-17T06:05:30;15.02;;;5.13;;
31770;SDS011;18343;50.152;8.182;2023-05-17T06:08:16;15.93;;;5.18;;
31770;SDS011;18343;50.152;8.182;2023-05-17T06:11:01;17.30;;;4.68;;
31770;SDS011;18343;50.152;8.182;2023-05-17T06:13:46;12.25;;;5.35;;
31770;SDS011;18343;50.152;8.182;2023-05-17T06:16:30;13.55;;;5.43;;
31770;SDS011;18343;50.152;8.182;2023-05-17T06:19:15;15.48;;;4.97;;
31770;SDS011;18343;50.152;8.182;2023-05-17T06:22:00;15.18;;;5.55;;
31770;SDS011;18343;50.152;8.182;2023-05-17T06:24:46;12.95;;;4.60;;
31770;SDS011;18343;50.152;8.182;2023-05-17T06:27:30;17.73;;;4.82;;
31770;SDS011;18343;50.152;8.182;2023-05-17T06:30:15;11.27;;;4.43;;
31770;SDS011;18343;50.152;8.182;2023-05-17T06:32:59;13.45;;;4.55;;
31770;SDS011;18343;50.152;8.182;2023-05-17T06:35:44;14.68;;;5.93;;
31770;SDS011;18343;50.152;8.182;2023-05-17T06:38:29;11.88;;;5.30;;
31770;SDS011;18343;50.152;8.182;2023-05-17T06:41:14;12.90;;;5.13;;
31770;SDS011;18343;50.152;8.182;2023-05-17T06:43:59;7.95;;;4.10;;
31770;SDS011;18343;50.152;8.182;2023-05-17T06:46:44;11.60;;;4.80;;
31770;SDS011;18343;50.152;8.182;2023-05-17T06:49:28;12.55;;;4.63;;
31770;SDS011;18343;50.152;8.182;2023-05-17T06:52:13;12.80;;;3.92;;
31770;SDS011;18343;50.152;8.182;2023-05-17T06:54:58;16.13;;;4.70;;
31770;SDS011;18343;50.152;8.182;2023-05-17T06:57:44;10.07;;;4.25;;
31770;SDS011;18343;50.152;8.182;2023-05-17T07:00:29;10.30;;;4.18;;
31770;SDS011;18343;50.152;8.182;2023-05-17T07:03:14;15.10;;;4.38;;
31770;SDS011;18343;50.152;8.182;2023-05-17T07:05:58;9.75;;;4.07;;
31770;SDS011;18343;50.152;8.182;2023-05-17T07:08:43;10.82;;;4.13;;
31770;SDS011;18343;50.152;8.182;2023-05-17T07:11:28;11.98;;;3.97;;
31770;SDS011;18343;50.152;8.182;2023-05-17T07:14:13;12.95;;;4.22;;
31770;SDS011;18343;50.152;8.182;2023-05-17T07:16:58;8.18;;;3.45;;
31770;SDS011;18343;50.152;8.182;2023-05-17T07:19:43;15.73;;;4.30;;
31770;SDS011;18343;50.152;8.182;2023-05-17T07:22:28;8.98;;;3.58;;
31770;SDS011;18343;50.152;8.182;2023-05-17T07:25:12;9.43;;;3.20;;
31770;SDS011;18343;50.152;8.182;2023-05-17T07:27:57;6.82;;;3.05;;
31770;SDS011;18343;50.152;8.182;2023-05-17T07:30:43;8.77;;;3.20;;
31770;SDS011;18343;50.152;8.182;2023-05-17T07:33:28;12.38;;;3.38;;
31770;SDS011;18343;50.152;8.182;2023-05-17T07:36:12;8.77;;;3.33;;
31770;SDS011;18343;50.152;8.182;2023-05-17T07:38:57;11.68;;;3.30;;
31770;SDS011;18343;50.152;8.182;2023-05-17T07:41:41;7.18;;;3.17;;
31770;SDS011;18343;50.152;8.182;2023-05-17T07:44:26;10.25;;;3.70;;
31770;SDS011;18343;50.152;8.182;2023-05-17T07:47:12;12.02;;;3.25;;
31770;SDS011;18343;50.152;8.182;2023-05-17T07:49:57;11.85;;;3.53;;
31770;SDS011;18343;50.152;8.182;2023-05-17T07:52:41;9.07;;;3.13;;
31770;SDS011;18343;50.152;8.182;2023-05-17T07:55:26;12.43;;;3.33;;
31770;SDS011;18343;50.152;8.182;2023-05-17T07:58:10;9.88;;;3.35;;
31770;SDS011;18343;50.152;8.182;2023-05-17T08:00:55;12.00;;;3.83;;
31770;SDS011;18343;50.152;8.182;2023-05-17T08:03:41;11.45;;;4.07;;
31770;SDS011;18343;50.152;8.182;2023-05-17T08:06:26;10.63;;;3.65;;
31770;SDS011;18343;50.152;8.182;2023-05-17T08:09:10;12.68;;;3.67;;
31770;SDS011;18343;50.152;8.182;2023-05-17T08:11:54;10.88;;;3.97;;
31770;SDS011;18343;50.152;8.182;2023-05-17T08:14:39;12.57;;;3.95;;
31770;SDS011;18343;50.152;8.182;2023-05-17T08:17:24;14.70;;;4.38;;
31770;SDS011;18343;50.152;8.182;2023-05-17T08:20:11;17.35;;;4.25;;
31770;SDS011;18343;50.152;8.182;2023-05-17T08:22:56;10.38;;;4.38;;
31770;SDS011;18343;50.152;8.182;2023-05-17T08:25:40;12.27;;;4.18;;
31770;SDS011;18343;50.152;8.182;2023-05-17T08:28:25;9.30;;;4.13;;
31770;SDS011;18343;50.152;8.182;2023-05-17T08:31:09;7.88;;;3.67;;
31770;SDS011;18343;50.152;8.182;2023-05-17T08:33:54;9.88;;;3.72;;
31770;SDS011;18343;50.152;8.182;2023-05-17T08:36:40;7.85;;;3.47;;
31770;SDS011;18343;50.152;8.182;2023-05-17T08:39:24;9.52;;;3.63;;
31770;SDS011;18343;50.152;8.182;2023-05-17T08:42:09;11.30;;;4.05;;
31770;SDS011;18343;50.152;8.182;2023-05-17T08:44:57;13.25;;;3.83;;
31770;SDS011;18343;50.152;8.182;2023-05-17T08:47:42;10.55;;;3.83;;
31770;SDS011;18343;50.152;8.182;2023-05-17T08:50:28;6.32;;;3.78;;
31770;SDS011;18343;50.152;8.182;2023-05-17T08:53:15;11.50;;;4.50;;
31770;SDS011;18343;50.152;8.182;2023-05-17T08:56:00;8.07;;;3.85;;
31770;SDS011;18343;50.152;8.182;2023-05-17T08:58:47;10.27;;;3.67;;
31770;SDS011;18343;50.152;8.182;2023-05-17T09:01:34;10.80;;;3.92;;
31770;SDS011;18343;50.152;8.182;2023-05-17T09:04:20;8.85;;;3.83;;
31770;SDS011;18343;50.152;8.182;2023-05-17T09:07:06;12.93;;;4.10;;
31770;SDS011;18343;50.152;8.182;2023-05-17T09:09:52;12.32;;;3.80;;
31770;SDS011;18343;50.152;8.182;2023-05-17T09:12:37;13.55;;;3.80;;
31770;SDS011;18343;50.152;8.182;2023-05-17T09:15:24;8.40;;;3.80;;
31770;SDS011;18343;50.152;8.182;2023-05-17T09:18:09;7.13;;;3.38;;
31770;SDS011;18343;50.152;8.182;2023-05-17T09:20:54;13.23;;;3.58;;
31770;SDS011;18343;50.152;8.182;2023-05-17T09:23:38;7.63;;;4.10;;
31770;SDS011;18343;50.152;8.182;2023-05-17T09:26:24;6.07;;;3.05;;
31770;SDS011;18343;50.152;8.182;2023-05-17T09:29:19;12.05;;;3.03;;
31770;SDS011;18343;50.152;8.182;2023-05-17T09:32:13;9.10;;;3.28;;
31770;SDS011;18343;50.152;8.182;2023-05-17T09:35:00;7.88;;;3.03;;
31770;SDS011;18343;50.152;8.182;2023-05-17T09:37:44;7.38;;;3.88;;
31770;SDS011;18343;50.152;8.182;2023-05-17T09:40:29;9.50;;;3.15;;
31770;SDS011;18343;50.152;8.182;2023-05-17T09:43:16;6.25;;;3.20;;
31770;SDS011;18343;50.152;8.182;2023-05-17T09:46:07;10.88;;;3.10;;
31770;SDS011;18343;50.152;8.182;2023-05-17T09:48:52;7.45;;;3.20;;
31770;SDS011;18343;50.152;8.182;2023-05-17T09:51:38;8.27;;;3.47;;
31770;SDS011;18343;50.152;8.182;2023-05-17T09:54:24;12.57;;;4.63;;
31770;SDS011;18343;50.152;8.182;2023-05-17T09:57:20;7.28;;;3.33;;
31770;SDS011;18343;50.152;8.182;2023-05-17T10:00:07;7.35;;;3.20;;
31770;SDS011;18343;50.152;8.182;2023-05-17T10:02:53;12.02;;;3.22;;
31770;SDS011;18343;50.152;8.182;2023-05-17T10:05:38;7.28;;;2.88;;
31770;SDS011;18343;50.152;8.182;2023-05-17T10:08:28;11.80;;;3.13;;
31770;SDS011;18343;50.152;8.182;2023-05-17T10:11:13;10.10;;;3.40;;
31770;SDS011;18343;50.152;8.182;2023-05-17T10:14:04;10.35;;;4.03;;
31770;SDS011;18343;50.152;8.182;2023-05-17T10:16:54;10.20;;;3.55;;
31770;SDS011;18343;50.152;8.182;2023-05-17T10:19:40;8.95;;;3.58;;
31770;SDS011;18343;50.152;8.182;2023-05-17T10:22:25;9.43;;;4.10;;
31770;SDS011;18343;50.152;8.182;2023-05-17T10:25:14;12.95;;;4.15;;
31770;SDS011;18343;50.152;8.182;2023-05-17T10:27:58;8.43;;;3.47;;
31770;SDS011;18343;50.152;8.182;2023-05-17T10:30:44;11.02;;;3.90;;
31770;SDS011;18343;50.152;8.182;2023-05-17T10:33:32;12.50;;;4.22;;
31770;SDS011;18343;50.152;8.182;2023-05-17T10:36:17;9.57;;;3.88;;
31770;SDS011;18343;50.152;8.182;2023-05-17T10:39:02;7.47;;;3.45;;
31770;SDS011;18343;50.152;8.182;2023-05-17T10:41:49;11.90;;;3.85;;
31770;SDS011;18343;50.152;8.182;2023-05-17T10:44:37;9.63;;;3.45;;
31770;SDS011;18343;50.152;8.182;2023-05-17T10:47:23;12.30;;;3.90;;
31770;SDS011;18343;50.152;8.182;2023-05-17T10:50:20;11.85;;;3.33;;
31770;SDS011;18343;50.152;8.182;2023-05-17T10:53:09;8.98;;;3.22;;
31770;SDS011;18343;50.152;8.182;2023-05-17T10:55:54;10.05;;;3.28;;
31770;SDS011;18343;50.152;8.182;2023-05-17T10:58:38;5.38;;;2.75;;
31770;SDS011;18343;50.152;8.182;2023-05-17T11:04:36;10.60;;;2.75;;
31770;SDS011;18343;50.152;8.182;2023-05-17T11:07:25;7.38;;;2.45;;
31770;SDS011;18343;50.152;8.182;2023-05-17T11:10:11;10.23;;;3.38;;
31770;SDS011;18343;50.152;8.182;2023-05-17T11:12:55;8.73;;;2.47;;
31770;SDS011;18343;50.152;8.182;2023-05-17T11:15:39;7.82;;;2.35;;
31770;SDS011;18343;50.152;8.182;2023-05-17T11:18:24;7.60;;;2.78;;
31770;SDS011;18343;50.152;8.182;2023-05-17T11:21:09;7.53;;;2.17;;
31770;SDS011;18343;50.152;8.182;2023-05-17T11:23:59;7.47;;;2.42;;
31770;SDS011;18343;50.152;8.182;2023-05-17T11:26:48;7.25;;;2.08;;
31770;SDS011;18343;50.152;8.182;2023-05-17T11:29:38;15.60;;;2.88;;
31770;SDS011;18343;50.152;8.182;2023-05-17T11:32:27;5.45;;;2.45;;
31770;SDS011;18343;50.152;8.182;2023-05-17T11:35:15;6.57;;;1.92;;
31770;SDS011;18343;50.152;8.182;2023-05-17T11:38:14;4.20;;;1.70;;
31770;SDS011;18343;50.152;8.182;2023-05-17T11:41:16;8.27;;;2.25;;
31770;SDS011;18343;50.152;8.182;2023-05-17T11:44:03;8.38;;;2.40;;
31770;SDS011;18343;50.152;8.182;2023-05-17T11:46:50;10.82;;;2.30;;
31770;SDS011;18343;50.152;8.182;2023-05-17T11:49:37;14.65;;;2.60;;
31770;SDS011;18343;50.152;8.182;2023-05-17T11:52:23;9.88;;;2.15;;
31770;SDS011;18343;50.152;8.182;2023-05-17T11:55:08;10.70;;;2.72;;
31770;SDS011;18343;50.152;8.182;2023-05-17T11:57:59;7.30;;;2.22;;
31770;SDS011;18343;50.152;8.182;2023-05-17T12:00:50;11.25;;;2.58;;
31770;SDS011;18343;50.152;8.182;2023-05-17T12:03:36;9.15;;;2.10;;
31770;SDS011;18343;50.152;8.182;2023-05-17T12:06:21;6.22;;;2.08;;
31770;SDS011;18343;50.152;8.182;2023-05-17T12:09:06;8.30;;;1.77;;
31770;SDS011;18343;50.152;8.182;2023-05-17T12:11:50;6.40;;;1.83;;
31770;SDS011;18343;50.152;8.182;2023-05-17T12:14:37;9.45;;;2.38;;
31770;SDS011;18343;50.152;8.182;2023-05-17T12:17:28;6.20;;;1.83;;
31770;SDS011;18343;50.152;8.182;2023-05-17T12:20:19;6.13;;;2.15;;
31770;SDS011;18343;50.152;8.182;2023-05-17T12:23:04;7.38;;;2.03;;
31770;SDS011;18343;50.152;8.182;2023-05-17T12:25:49;14.38;;;3.22;;
31770;SDS011;18343;50.152;8.182;2023-05-17T12:28:34;12.10;;;2.63;;
31770;SDS011;18343;50.152;8.182;2023-05-17T12:31:23;7.68;;;2.47;;
31770;SDS011;18343;50.152;8.182;2023-05-17T12:34:12;8.02;;;2.42;;
31770;SDS011;18343;50.152;8.182;2023-05-17T12:36:57;9.65;;;2.28;;
31770;SDS011;18343;50.152;8.182;2023-05-17T12:39:42;9.25;;;2.35;;
31770;SDS011;18343;50.152;8.182;2023-05-17T12:42:27;9.60;;;2.47;;
31770;SDS011;18343;50.152;8.182;2023-05-17T12:45:12;15.07;;;2.20;;
31770;SDS011;18343;50.152;8.182;2023-05-17T12:47:59;13.20;;;2.95;;
31770;SDS011;18343;50.152;8.182;2023-05-17T12:50:44;10.93;;;2.03;;
31770;SDS011;18343;50.152;8.182;2023-05-17T12:53:33;8.68;;;2.15;;
31770;SDS011;18343;50.152;8.182;2023-05-17T12:56:19;6.63;;;1.90;;
31770;SDS011;18343;50.152;8.182;2023-05-17T12:59:06;8.57;;;2.13;;
31770;SDS011;18343;50.152;8.182;2023-05-17T13:01:55;9.85;;;2.03;;
31770;SDS011;18343;50.152;8.182;2023-05-17T13:04:42;7.93;;;2.55;;
31770;SDS011;18343;50.152;8.182;2023-05-17T13:07:26;11.25;;;2.33;;
31770;SDS011;18343;50.152;8.182;2023-05-17T13:10:23;7.72;;;1.65;;
31770;SDS011;18343;50.152;8.182;2023-05-17T13:13:09;8.85;;;2.20;;
31770;SDS011;18343;50.152;8.182;2023-05-17T13:16:02;6.93;;;2.30;;
31770;SDS011;18343;50.152;8.182;2023-05-17T13:18:48;7.32;;;2.00;;
31770;SDS011;18343;50.152;8.182;2023-05-17T13:21:35;7.30;;;1.80;;
31770;SDS011;18343;50.152;8.182;2023-05-17T13:24:20;8.75;;;2.08;;
31770;SDS011;18343;50.152;8.182;2023-05-17T13:27:04;6.43;;;1.98;;
31770;SDS011;18343;50.152;8.182;2023-05-17T13:29:49;6.97;;;1.90;;
31770;SDS011;18343;50.152;8.182;2023-05-17T13:32:37;5.90;;;1.98;;
31770;SDS011;18343;50.152;8.182;2023-05-17T13:35:22;8.15;;;2.00;;
31770;SDS011;18343;50.152;8.182;2023-05-17T13:38:08;7.70;;;2.03;;
31770;SDS011;18343;50.152;8.182;2023-05-17T13:40:53;9.48;;;2.08;;
31770;SDS011;18343;50.152;8.182;2023-05-17T13:43:37;7.78;;;1.77;;
31770;SDS011;18343;50.152;8.182;2023-05-17T13:46:22;12.75;;;2.25;;
31770;SDS011;18343;50.152;8.182;2023-05-17T13:49:07;9.95;;;2.45;;
31770;SDS011;18343;50.152;8.182;2023-05-17T13:51:51;13.48;;;2.20;;
31770;SDS011;18343;50.152;8.182;2023-05-17T13:54:38;5.28;;;1.77;;
31770;SDS011;18343;50.152;8.182;2023-05-17T13:57:22;7.03;;;1.98;;
31770;SDS011;18343;50.152;8.182;2023-05-17T14:00:07;5.38;;;1.75;;
31770;SDS011;18343;50.152;8.182;2023-05-17T14:02:54;10.23;;;2.45;;
31770;SDS011;18343;50.152;8.182;2023-05-17T14:05:39;6.47;;;1.90;;
31770;SDS011;18343;50.152;8.182;2023-05-17T14:08:23;9.70;;;1.90;;
31770;SDS011;18343;50.152;8.182;2023-05-17T14:11:09;9.05;;;2.38;;
31770;SDS011;18343;50.152;8.182;2023-05-17T14:13:54;9.68;;;1.85;;
31770;SDS011;18343;50.152;8.182;2023-05-17T14:16:39;5.15;;;1.75;;
31770;SDS011;18343;50.152;8.182;2023-05-17T14:19:24;13.60;;;2.53;;
31770;SDS011;18343;50.152;8.182;2023-05-17T14:22:09;14.45;;;2.15;;
31770;SDS011;18343;50.152;8.182;2023-05-17T14:24:53;7.38;;;2.40;;
31770;SDS011;18343;50.152;8.182;2023-05-17T14:27:39;13.85;;;2.72;;
31770;SDS011;18343;50.152;8.182;2023-05-17T14:30:24;8.68;;;2.17;;
31770;SDS011;18343;50.152;8.182;2023-05-17T14:33:08;9.35;;;1.85;;
31770;SDS011;18343;50.152;8.182;2023-05-17T14:35:53;13.07;;;2.15;;
31770;SDS011;18343;50.152;8.182;2023-05-17T14:38:37;10.30;;;2.28;;
31770;SDS011;18343;50.152;8.182;2023-05-17T14:41:22;9.85;;;2.45;;
31770;SDS011;18343;50.152;8.182;2023-05-17T14:44:08;6.25;;;1.98;;
31770;SDS011;18343;50.152;8.182;2023-05-17T14:46:52;6.65;;;1.85;;
31770;SDS011;18343;50.152;8.182;2023-05-17T14:49:37;8.65;;;2.22;;
31770;SDS011;18343;50.152;8.182;2023-05-17T14:52:21;11.00;;;2.33;;
31770;SDS011;18343;50.152;8.182;2023-05-17T14:55:06;7.70;;;1.92;;
31770;SDS011;18343;50.152;8.182;2023-05-17T14:57:51;5.88;;;2.35;;
31770;SDS011;18343;50.152;8.182;2023-05-17T15:00:37;6.95;;;2.13;;
31770;SDS011;18343;50.152;8.182;2023-05-17T15:03:22;5.35;;;2.05;;
31770;SDS011;18343;50.152;8.182;2023-05-17T15:06:07;8.85;;;1.77;;
31770;SDS011;18343;50.152;8.182;2023-05-17T15:08:52;11.57;;;1.98;;
31770;SDS011;18343;50.152;8.182;2023-05-17T15:11:37;7.20;;;2.00;;
31770;SDS011;18343;50.152;8.182;2023-05-17T15:14:22;15.75;;;2.45;;
31770;SDS011;18343;50.152;8.182;2023-05-17T15:17:08;8.77;;;2.00;;
31770;SDS011;18343;50.152;8.182;2023-05-17T15:19:52;6.82;;;1.80;;
31770;SDS011;18343;50.152;8.182;2023-05-17T15:22:37;6.55;;;1.70;;
31770;SDS011;18343;50.152;8.182;2023-05-17T15:25:22;6.45;;;2.10;;
31770;SDS011;18343;50.152;8.182;2023-05-17T15:28:06;6.95;;;2.30;;
31770;SDS011;18343;50.152;8.182;2023-05-17T15:30:57;11.65;;;1.75;;
31770;SDS011;18343;50.152;8.182;2023-05-17T15:33:44;3.83;;;1.42;;
31770;SDS011;18343;50.152;8.182;2023-05-17T15:36:29;5.60;;;1.80;;
31770;SDS011;18343;50.152;8.182;2023-05-17T15:39:14;9.23;;;2.28;;
31770;SDS011;18343;50.152;8.182;2023-05-17T15:42:01;8.85;;;2.25;;
31770;SDS011;18343;50.152;8.182;2023-05-17T15:44:46;9.25;;;2.35;;
31770;SDS011;18343;50.152;8.182;2023-05-17T15:47:31;4.13;;;1.30;;
31770;SDS011;18343;50.152;8.182;2023-05-17T15:50:17;6.30;;;2.20;;
31770;SDS011;18343;50.152;8.182;2023-05-17T15:53:02;8.23;;;2.22;;
31770;SDS011;18343;50.152;8.182;2023-05-17T15:55:47;7.07;;;2.35;;
31770;SDS011;18343;50.152;8.182;2023-05-17T15:58:31;8.23;;;2.10;;
31770;SDS011;18343;50.152;8.182;2023-05-17T16:01:16;6.78;;;1.77;;
31770;SDS011;18343;50.152;8.182;2023-05-17T16:04:01;10.10;;;1.58;;
31770;SDS011;18343;50.152;8.182;2023-05-17T16:06:47;9.13;;;2.13;;
31770;SDS011;18343;50.152;8.182;2023-05-17T16:09:32;4.38;;;1.88;;
31770;SDS011;18343;50.152;8.182;2023-05-17T16:12:16;6.35;;;2.10;;
31770;SDS011;18343;50.152;8.182;2023-05-17T16:15:01;8.10;;;1.83;;
31770;SDS011;18343;50.152;8.182;2023-05-17T16:17:46;9.90;;;1.90;;
31770;SDS011;18343;50.152;8.182;2023-05-17T16:20:31;6.05;;;2.00;;
31770;SDS011;18343;50.152;8.182;2023-05-17T16:23:17;7.60;;;2.10;;
31770;SDS011;18343;50.152;8.182;2023-05-17T16:26:02;7.95;;;2.03;;
31770;SDS011;18343;50.152;8.182;2023-05-17T16:28:47;8.40;;;1.98;;
31770;SDS011;18343;50.152;8.182;2023-05-17T16:31:34;12.80;;;2.35;;
31770;SDS011;18343;50.152;8.182;2023-05-17T16:34:19;6.07;;;2.20;;
31770;SDS011;18343;50.152;8.182;2023-05-17T16:37:04;7.07;;;1.98;;